createdAt,value
2017-09-27T00:00:01.105Z,11.63
2017-09-27T00:01:01.100Z,11.72
2017-09-27T00:02:01.097Z,11.70
2017-09-27T00:03:01.095Z,11.70
2017-09-27T00:04:01.098Z,11.68
2017-09-27T00:05:01.092Z,11.73
2017-09-27T00:06:01.091Z,11.70
2017-09-27T00:07:01.087Z,11.75
2017-09-27T00:08:01.090Z,11.73
2017-09-27T00:09:01.083Z,11.70
2017-09-27T00:10:01.085Z,11.69
2017-09-27T00:11:01.079Z,11.72
2017-09-27T00:12:01.075Z,11.72
2017-09-27T00:13:01.075Z,11.69
2017-09-27T00:14:01.073Z,11.68
2017-09-27T00:15:01.070Z,11.63
2017-09-27T00:16:01.072Z,11.66
2017-09-27T00:17:01.068Z,11.63
2017-09-27T00:18:01.063Z,11.66
2017-09-27T00:19:01.062Z,11.70
2017-09-27T00:20:01.061Z,11.60
2017-09-27T00:21:01.059Z,11.62
2017-09-27T00:22:01.055Z,11.66
2017-09-27T00:23:01.056Z,11.66
2017-09-27T00:24:01.053Z,11.62
2017-09-27T00:25:01.040Z,11.69
2017-09-27T00:26:01.047Z,11.70
2017-09-27T00:27:01.043Z,11.69
2017-09-27T00:28:01.045Z,11.69
2017-09-27T00:29:01.031Z,11.78
2017-09-27T00:30:01.035Z,11.75
2017-09-27T00:31:01.035Z,11.75
2017-09-27T00:32:01.040Z,11.90
2017-09-27T00:33:01.029Z,11.80
2017-09-27T00:34:01.028Z,11.90
2017-09-27T00:35:01.024Z,11.91
2017-09-27T00:36:01.025Z,12.00
2017-09-27T00:37:01.022Z,12.03
2017-09-27T00:38:01.020Z,12.09
2017-09-27T00:39:01.022Z,12.03
2017-09-27T00:40:01.019Z,12.07
2017-09-27T00:41:01.014Z,12.06
2017-09-27T00:42:01.011Z,12.12
2017-09-27T00:43:01.012Z,12.13
2017-09-27T00:44:01.008Z,12.15
2017-09-27T00:45:01.002Z,12.15
2017-09-27T00:46:01.006Z,12.21
2017-09-27T00:47:01.000Z,12.20
2017-09-27T00:48:01.000Z,12.21
2017-09-27T00:49:00.994Z,12.18
2017-09-27T00:50:00.996Z,12.15
2017-09-27T00:51:00.997Z,12.20
2017-09-27T00:52:00.993Z,12.18
2017-09-27T00:53:00.990Z,12.24
2017-09-27T00:54:00.988Z,12.27
2017-09-27T00:55:00.994Z,12.28
2017-09-27T00:56:00.989Z,12.25
2017-09-27T00:57:00.995Z,12.31
2017-09-27T00:58:00.977Z,12.32
2017-09-27T00:59:00.981Z,12.31
2017-09-27T01:00:00.985Z,12.35
2017-09-27T01:01:00.979Z,12.40
2017-09-27T01:02:00.978Z,12.39
2017-09-27T01:03:00.976Z,12.37
2017-09-27T01:04:00.973Z,12.35
2017-09-27T01:05:00.969Z,12.29
2017-09-27T01:06:00.966Z,12.35
2017-09-27T01:07:00.966Z,12.36
2017-09-27T01:08:00.967Z,12.39
2017-09-27T01:09:00.965Z,12.40
2017-09-27T01:10:00.958Z,12.39
2017-09-27T01:11:00.965Z,12.35
2017-09-27T01:12:00.958Z,12.35
2017-09-27T01:13:00.956Z,12.35
2017-09-27T01:14:00.953Z,12.36
2017-09-27T01:15:00.954Z,12.36
2017-09-27T01:16:00.956Z,12.36
2017-09-27T01:17:00.948Z,12.36
2017-09-27T01:18:00.950Z,12.31
2017-09-27T01:19:00.958Z,12.39
2017-09-27T01:20:00.945Z,12.37
2017-09-27T01:21:00.945Z,12.37
2017-09-27T01:22:00.939Z,12.35
2017-09-27T01:23:00.944Z,12.45
2017-09-27T01:24:00.938Z,12.37
2017-09-27T01:25:00.934Z,12.47
2017-09-27T01:26:00.937Z,12.49
2017-09-27T01:27:00.935Z,12.39
2017-09-27T01:28:00.934Z,12.47
2017-09-27T01:29:00.928Z,12.50
2017-09-27T01:30:00.931Z,12.47
2017-09-27T01:31:00.928Z,12.46
2017-09-27T01:32:00.926Z,12.47
2017-09-27T01:33:00.923Z,12.53
2017-09-27T01:34:00.925Z,12.49
2017-09-27T01:35:00.924Z,12.49
2017-09-27T01:36:00.922Z,12.53
2017-09-27T01:37:00.921Z,12.47
2017-09-27T01:38:00.919Z,12.53
2017-09-27T01:39:00.918Z,12.50
2017-09-27T01:40:00.915Z,12.49
2017-09-27T01:41:00.920Z,12.55
2017-09-27T01:42:00.917Z,12.54
2017-09-27T01:43:00.911Z,12.49
2017-09-27T01:44:00.911Z,12.60
2017-09-27T01:45:00.909Z,12.60
2017-09-27T01:46:00.906Z,12.58
2017-09-27T01:47:00.907Z,12.58
2017-09-27T01:48:00.904Z,12.61
2017-09-27T01:49:00.904Z,12.61
2017-09-27T01:50:00.900Z,12.60
2017-09-27T01:51:00.901Z,12.61
2017-09-27T01:52:00.898Z,12.62
2017-09-27T01:53:00.894Z,12.61
2017-09-27T01:54:00.899Z,12.61
2017-09-27T01:55:00.891Z,12.61
2017-09-27T01:56:00.897Z,12.60
2017-09-27T01:57:00.890Z,12.61
2017-09-27T01:58:00.889Z,12.62
2017-09-27T01:59:00.896Z,12.64
2017-09-27T02:00:00.888Z,12.67
2017-09-27T02:01:00.888Z,12.61
2017-09-27T02:02:00.887Z,12.67
2017-09-27T02:03:00.882Z,12.62
2017-09-27T02:04:00.885Z,12.64
2017-09-27T02:05:00.880Z,12.70
2017-09-27T02:06:00.882Z,12.70
2017-09-27T02:07:00.878Z,12.67
2017-09-27T02:08:00.875Z,12.70
2017-09-27T02:09:00.875Z,12.62
2017-09-27T02:10:00.875Z,12.70
2017-09-27T02:11:00.877Z,12.68
2017-09-27T02:12:00.873Z,12.65
2017-09-27T02:13:00.870Z,12.68
2017-09-27T02:14:00.870Z,12.70
2017-09-27T02:15:00.868Z,12.72
2017-09-27T02:16:00.866Z,12.73
2017-09-27T02:17:00.867Z,12.75
2017-09-27T02:18:00.863Z,12.68
2017-09-27T02:19:00.863Z,12.73
2017-09-27T02:20:00.861Z,12.68
2017-09-27T02:21:00.856Z,12.75
2017-09-27T02:22:00.858Z,12.80
2017-09-27T02:23:00.856Z,12.83
2017-09-27T02:24:00.867Z,12.79
2017-09-27T02:25:00.852Z,12.85
2017-09-27T02:26:00.854Z,12.79
2017-09-27T02:27:00.855Z,12.79
2017-09-27T02:28:00.851Z,12.78
2017-09-27T02:29:00.850Z,12.83
2017-09-27T02:30:00.847Z,12.79
2017-09-27T02:31:00.845Z,12.76
2017-09-27T02:32:00.849Z,12.70
2017-09-27T02:33:00.849Z,12.68
2017-09-27T02:34:00.843Z,12.72
2017-09-27T02:35:00.840Z,12.70
2017-09-27T02:36:00.841Z,12.73
2017-09-27T02:37:00.842Z,12.73
2017-09-27T02:38:00.837Z,12.73
2017-09-27T02:39:00.839Z,12.75
2017-09-27T02:40:00.835Z,12.68
2017-09-27T02:41:00.833Z,12.73
2017-09-27T02:42:00.835Z,12.68
2017-09-27T02:43:00.832Z,12.70
2017-09-27T02:44:00.842Z,12.72
2017-09-27T02:45:00.826Z,12.70
2017-09-27T02:46:00.827Z,12.68
2017-09-27T02:47:00.830Z,12.65
2017-09-27T02:48:00.822Z,12.70
2017-09-27T02:49:00.823Z,12.62
2017-09-27T02:50:00.825Z,12.61
2017-09-27T02:51:00.820Z,12.64
2017-09-27T02:52:00.820Z,12.68
2017-09-27T02:53:00.816Z,12.60
2017-09-27T02:54:00.816Z,12.60
2017-09-27T02:55:00.814Z,12.53
2017-09-27T02:56:00.815Z,12.58
2017-09-27T02:57:00.813Z,12.46
2017-09-27T02:58:00.811Z,12.49
2017-09-27T02:59:00.804Z,12.47
2017-09-27T03:00:00.809Z,12.43
2017-09-27T03:01:00.805Z,12.35
2017-09-27T03:02:00.806Z,12.35
2017-09-27T03:03:00.801Z,12.35
2017-09-27T03:04:00.804Z,12.31
2017-09-27T03:05:00.798Z,12.25
2017-09-27T03:06:00.799Z,12.29
2017-09-27T03:07:00.798Z,12.37
2017-09-27T03:08:00.797Z,12.31
2017-09-27T03:09:00.793Z,12.32
2017-09-27T03:10:00.803Z,12.31
2017-09-27T03:11:00.789Z,12.31
2017-09-27T03:12:00.791Z,12.31
2017-09-27T03:13:00.786Z,12.29
2017-09-27T03:14:00.783Z,12.27
2017-09-27T03:15:00.779Z,12.27
2017-09-27T03:16:00.786Z,12.31
2017-09-27T03:17:00.783Z,12.27
2017-09-27T03:18:00.781Z,12.29
2017-09-27T03:19:00.781Z,12.27
2017-09-27T03:20:00.780Z,12.22
2017-09-27T03:21:00.772Z,12.31
2017-09-27T03:22:00.773Z,12.24
2017-09-27T03:23:00.767Z,12.35
2017-09-27T03:24:00.766Z,12.32
2017-09-27T03:25:00.764Z,12.37
2017-09-27T03:26:00.768Z,12.32
2017-09-27T03:27:00.766Z,12.29
2017-09-27T03:28:00.763Z,12.31
2017-09-27T03:29:00.760Z,12.35
2017-09-27T03:30:00.772Z,12.39
2017-09-27T03:31:00.761Z,12.39
2017-09-27T03:32:00.755Z,12.35
2017-09-27T03:33:00.751Z,12.35
2017-09-27T03:34:00.750Z,12.37
2017-09-27T03:35:00.749Z,12.32
2017-09-27T03:36:00.747Z,12.35
2017-09-27T03:37:00.748Z,12.35
2017-09-27T03:38:00.742Z,12.35
2017-09-27T03:39:00.744Z,12.36
2017-09-27T03:40:00.739Z,12.45
2017-09-27T03:41:00.740Z,12.37
2017-09-27T03:42:00.738Z,12.37
2017-09-27T03:43:00.737Z,12.39
2017-09-27T03:44:00.734Z,12.36
2017-09-27T03:45:00.735Z,12.43
2017-09-27T03:46:00.728Z,12.32
2017-09-27T03:47:00.730Z,12.36
2017-09-27T03:48:00.727Z,12.37
2017-09-27T03:49:00.727Z,12.45
2017-09-27T03:50:00.723Z,12.37
2017-09-27T03:51:00.724Z,12.47
2017-09-27T03:52:00.721Z,12.49
2017-09-27T03:53:00.721Z,12.46
2017-09-27T03:54:00.721Z,12.46
2017-09-27T03:55:00.715Z,12.47
2017-09-27T03:56:00.714Z,12.49
2017-09-27T03:57:00.713Z,12.46
2017-09-27T03:58:00.712Z,12.42
2017-09-27T03:59:00.713Z,12.42
2017-09-27T04:00:00.707Z,12.45
2017-09-27T04:01:00.706Z,12.35
2017-09-27T04:02:00.706Z,12.45
2017-09-27T04:03:00.709Z,12.36
2017-09-27T04:04:00.703Z,12.35
2017-09-27T04:05:00.703Z,12.36
2017-09-27T04:06:00.700Z,12.35
2017-09-27T04:07:00.702Z,12.32
2017-09-27T04:08:00.695Z,12.37
2017-09-27T04:09:00.694Z,12.39
2017-09-27T04:10:00.706Z,12.35
2017-09-27T04:11:00.701Z,12.36
2017-09-27T04:12:00.691Z,12.39
2017-09-27T04:13:00.686Z,12.45
2017-09-27T04:14:00.690Z,12.32
2017-09-27T04:15:00.712Z,12.31
2017-09-27T04:16:00.684Z,12.32
2017-09-27T04:17:00.686Z,12.37
2017-09-27T04:18:00.687Z,12.37
2017-09-27T04:19:00.681Z,12.35
2017-09-27T04:20:00.679Z,12.35
2017-09-27T04:21:00.683Z,12.43
2017-09-27T04:22:00.672Z,12.32
2017-09-27T04:23:00.685Z,12.36
2017-09-27T04:24:00.671Z,12.37
2017-09-27T04:25:00.667Z,12.35
2017-09-27T04:26:00.665Z,12.31
2017-09-27T04:27:00.665Z,12.36
2017-09-27T04:28:00.664Z,12.39
2017-09-27T04:29:00.661Z,12.35
2017-09-27T04:30:00.659Z,12.36
2017-09-27T04:31:00.659Z,12.35
2017-09-27T04:32:00.657Z,12.39
2017-09-27T04:33:00.655Z,12.37
2017-09-27T04:34:00.653Z,12.35
2017-09-27T04:35:00.655Z,12.36
2017-09-27T04:36:00.648Z,12.42
2017-09-27T04:37:00.652Z,12.42
2017-09-27T04:38:00.650Z,12.35
2017-09-27T04:39:00.644Z,12.45
2017-09-27T04:40:00.642Z,12.37
2017-09-27T04:41:00.641Z,12.31
2017-09-27T04:42:00.641Z,12.45
2017-09-27T04:43:00.640Z,12.43
2017-09-27T04:44:00.638Z,12.47
2017-09-27T04:45:00.631Z,12.45
2017-09-27T04:46:00.634Z,12.50
2017-09-27T04:47:00.633Z,12.49
2017-09-27T04:48:00.633Z,12.49
2017-09-27T04:49:00.628Z,12.42
2017-09-27T04:50:00.627Z,12.53
2017-09-27T04:51:00.626Z,12.50
2017-09-27T04:52:00.627Z,12.49
2017-09-27T04:53:00.623Z,12.60
2017-09-27T04:54:00.627Z,12.62
2017-09-27T04:55:00.626Z,12.57
2017-09-27T04:56:00.617Z,12.55
2017-09-27T04:57:00.617Z,12.62
2017-09-27T04:58:00.616Z,12.49
2017-09-27T04:59:00.612Z,12.54
2017-09-27T05:00:00.615Z,12.57
2017-09-27T05:01:00.610Z,12.60
2017-09-27T05:02:00.609Z,12.58
2017-09-27T05:03:00.609Z,12.61
2017-09-27T05:04:00.604Z,12.58
2017-09-27T05:05:00.610Z,12.64
2017-09-27T05:06:00.602Z,12.60
2017-09-27T05:07:00.606Z,12.60
2017-09-27T05:08:00.600Z,12.62
2017-09-27T05:09:00.597Z,12.61
2017-09-27T05:10:00.597Z,12.68
2017-09-27T05:11:00.591Z,12.58
2017-09-27T05:12:00.594Z,12.65
2017-09-27T05:13:00.589Z,12.58
2017-09-27T05:14:00.590Z,12.65
2017-09-27T05:15:00.592Z,12.58
2017-09-27T05:16:00.586Z,12.67
2017-09-27T05:17:00.589Z,12.62
2017-09-27T05:18:00.584Z,12.60
2017-09-27T05:19:00.585Z,12.72
2017-09-27T05:20:00.583Z,12.64
2017-09-27T05:21:00.579Z,12.64
2017-09-27T05:22:00.577Z,12.67
2017-09-27T05:23:00.580Z,12.65
2017-09-27T05:24:00.574Z,12.76
2017-09-27T05:25:00.572Z,12.73
2017-09-27T05:26:00.576Z,12.79
2017-09-27T05:27:00.573Z,12.86
2017-09-27T05:28:00.568Z,12.90
2017-09-27T05:29:00.565Z,12.87
2017-09-27T05:30:00.569Z,12.93
2017-09-27T05:31:00.565Z,12.93
2017-09-27T05:32:00.565Z,12.93
2017-09-27T05:33:00.561Z,12.90
2017-09-27T05:34:00.566Z,13.01
2017-09-27T05:35:00.556Z,12.95
2017-09-27T05:36:00.566Z,12.95
2017-09-27T05:37:00.559Z,12.93
2017-09-27T05:38:00.557Z,12.91
2017-09-27T05:39:00.557Z,12.98
2017-09-27T05:40:00.575Z,13.08
2017-09-27T05:41:00.552Z,13.05
2017-09-27T05:42:00.548Z,13.09
2017-09-27T05:43:00.554Z,13.05
2017-09-27T05:44:00.546Z,13.11
2017-09-27T05:45:00.551Z,13.05
2017-09-27T05:46:00.545Z,13.09
2017-09-27T05:47:00.544Z,13.08
2017-09-27T05:48:00.542Z,13.09
2017-09-27T05:49:00.546Z,13.12
2017-09-27T05:50:00.540Z,13.18
2017-09-27T05:51:00.539Z,13.09
2017-09-27T05:52:00.538Z,13.12
2017-09-27T05:53:00.535Z,13.12
2017-09-27T05:54:00.539Z,13.15
2017-09-27T05:55:00.535Z,13.05
2017-09-27T05:56:00.536Z,13.13
2017-09-27T05:57:00.535Z,13.12
2017-09-27T05:58:00.531Z,13.09
2017-09-27T05:59:00.532Z,13.13
2017-09-27T06:00:00.530Z,13.05
2017-09-27T06:01:00.525Z,13.25
2017-09-27T06:02:00.525Z,13.18
2017-09-27T06:03:00.525Z,13.20
2017-09-27T06:04:00.524Z,13.20
2017-09-27T06:05:00.524Z,13.23
2017-09-27T06:06:00.521Z,13.22
2017-09-27T06:07:00.522Z,13.20
2017-09-27T06:08:00.519Z,13.18
2017-09-27T06:09:00.515Z,13.23
2017-09-27T06:10:00.514Z,13.19
2017-09-27T06:11:00.516Z,13.20
2017-09-27T06:12:00.515Z,13.33
2017-09-27T06:13:00.513Z,13.31
2017-09-27T06:14:00.511Z,13.35
2017-09-27T06:15:00.513Z,13.39
2017-09-27T06:16:00.510Z,13.46
2017-09-27T06:17:00.532Z,13.52
2017-09-27T06:18:00.508Z,13.53
2017-09-27T06:19:00.510Z,13.53
2017-09-27T06:20:00.507Z,13.52
2017-09-27T06:21:00.511Z,13.59
2017-09-27T06:22:00.504Z,13.60
2017-09-27T06:23:00.501Z,13.57
2017-09-27T06:24:00.503Z,13.71
2017-09-27T06:25:00.498Z,13.77
2017-09-27T06:26:00.501Z,13.77
2017-09-27T06:27:00.502Z,13.78
2017-09-27T06:28:00.498Z,13.83
2017-09-27T06:29:00.496Z,13.93
2017-09-27T06:30:00.496Z,13.89
2017-09-27T06:31:00.495Z,14.00
2017-09-27T06:32:00.492Z,14.10
2017-09-27T06:33:00.494Z,14.10
2017-09-27T06:34:00.495Z,14.23
2017-09-27T06:35:00.494Z,14.33
2017-09-27T06:36:00.491Z,14.41
2017-09-27T06:37:00.493Z,14.28
2017-09-27T06:38:00.484Z,14.43
2017-09-27T06:39:00.489Z,14.47
2017-09-27T06:40:00.491Z,14.51
2017-09-27T06:41:00.488Z,14.59
2017-09-27T06:42:00.491Z,14.60
2017-09-27T06:43:00.490Z,14.69
2017-09-27T06:44:00.490Z,14.69
2017-09-27T06:45:00.489Z,14.81
2017-09-27T06:46:00.487Z,14.84
2017-09-27T06:47:00.491Z,14.84
2017-09-27T06:48:00.488Z,14.88
2017-09-27T06:49:00.488Z,14.91
2017-09-27T06:50:00.485Z,14.97
2017-09-27T06:51:00.486Z,15.02
2017-09-27T06:52:00.489Z,15.09
2017-09-27T06:53:00.489Z,15.07
2017-09-27T06:54:00.487Z,15.11
2017-09-27T06:55:00.488Z,15.11
2017-09-27T06:56:00.486Z,15.15
2017-09-27T06:57:00.493Z,15.19
2017-09-27T06:58:00.490Z,15.24
2017-09-27T06:59:00.496Z,15.17
2017-09-27T07:00:00.491Z,15.22
2017-09-27T07:01:00.493Z,15.22
2017-09-27T07:02:00.487Z,15.22
2017-09-27T07:03:00.489Z,15.27
2017-09-27T07:04:00.491Z,15.29
2017-09-27T07:05:00.492Z,15.36
2017-09-27T07:06:00.493Z,15.35
2017-09-27T07:07:00.494Z,15.27
2017-09-27T07:08:00.502Z,15.37
2017-09-27T07:09:00.488Z,15.31
2017-09-27T07:10:00.495Z,15.29
2017-09-27T07:11:00.494Z,15.35
2017-09-27T07:12:00.500Z,15.42
2017-09-27T07:13:00.500Z,15.42
2017-09-27T07:14:00.495Z,15.43
2017-09-27T07:15:00.497Z,15.44
2017-09-27T07:16:00.499Z,15.47
2017-09-27T07:17:00.498Z,15.46
2017-09-27T07:18:00.499Z,15.57
2017-09-27T07:19:00.500Z,15.58
2017-09-27T07:20:00.501Z,15.52
2017-09-27T07:21:00.501Z,15.59
2017-09-27T07:22:00.501Z,15.59
2017-09-27T07:23:00.518Z,15.67
2017-09-27T07:24:00.509Z,15.64
2017-09-27T07:25:00.508Z,15.70
2017-09-27T07:26:00.504Z,15.72
2017-09-27T07:27:00.505Z,15.73
2017-09-27T07:28:00.508Z,15.61
2017-09-27T07:29:00.508Z,15.73
2017-09-27T07:30:00.508Z,15.83
2017-09-27T07:31:00.513Z,15.82
2017-09-27T07:32:00.554Z,15.90
2017-09-27T07:33:00.520Z,15.92
2017-09-27T07:34:00.510Z,15.94
2017-09-27T07:35:00.510Z,16.04
2017-09-27T07:36:00.513Z,16.10
2017-09-27T07:37:00.514Z,16.10
2017-09-27T07:38:00.516Z,16.16
2017-09-27T07:39:00.519Z,16.31
2017-09-27T07:40:00.519Z,16.29
2017-09-27T07:41:00.556Z,16.32
2017-09-27T07:42:00.524Z,16.38
2017-09-27T07:43:00.526Z,16.46
2017-09-27T07:44:00.523Z,16.39
2017-09-27T07:45:00.522Z,16.46
2017-09-27T07:46:00.531Z,16.47
2017-09-27T07:47:00.528Z,16.43
2017-09-27T07:48:00.530Z,16.50
2017-09-27T07:49:00.529Z,16.47
2017-09-27T07:50:00.530Z,16.51
2017-09-27T07:51:00.534Z,16.57
2017-09-27T07:52:00.537Z,16.57
2017-09-27T07:53:00.536Z,16.54
2017-09-27T07:54:00.539Z,16.58
2017-09-27T07:55:00.539Z,16.68
2017-09-27T07:56:00.541Z,16.64
2017-09-27T07:57:00.540Z,16.79
2017-09-27T07:58:00.544Z,16.78
2017-09-27T07:59:00.546Z,16.74
2017-09-27T08:00:00.548Z,16.76
2017-09-27T08:01:00.549Z,16.78
2017-09-27T08:02:00.551Z,16.65
2017-09-27T08:03:00.554Z,16.71
2017-09-27T08:04:00.555Z,16.76
2017-09-27T08:05:00.558Z,16.81
2017-09-27T08:06:00.559Z,16.71
2017-09-27T08:07:00.562Z,16.69
2017-09-27T08:08:00.562Z,16.72
2017-09-27T08:09:00.567Z,16.65
2017-09-27T08:10:00.569Z,16.66
2017-09-27T08:11:00.567Z,16.83
2017-09-27T08:12:00.570Z,16.72
2017-09-27T08:13:00.574Z,16.81
2017-09-27T08:14:00.579Z,16.86
2017-09-27T08:15:00.576Z,16.89
2017-09-27T08:16:00.578Z,16.94
2017-09-27T08:17:00.580Z,16.87
2017-09-27T08:18:00.591Z,16.96
2017-09-27T08:19:00.582Z,16.93
2017-09-27T08:20:00.588Z,16.89
2017-09-27T08:21:00.586Z,17.02
2017-09-27T08:22:00.588Z,17.15
2017-09-27T08:23:00.611Z,17.22
2017-09-27T08:24:00.599Z,17.22
2017-09-27T08:25:00.598Z,17.27
2017-09-27T08:26:00.603Z,17.31
2017-09-27T08:27:00.611Z,17.29
2017-09-27T08:28:00.656Z,17.38
2017-09-27T08:29:00.597Z,17.33
2017-09-27T08:30:00.605Z,17.36
2017-09-27T08:31:00.611Z,17.41
2017-09-27T08:32:00.611Z,17.44
2017-09-27T08:33:00.612Z,17.42
2017-09-27T08:34:00.616Z,17.42
2017-09-27T08:35:00.618Z,17.46
2017-09-27T08:36:00.624Z,17.45
2017-09-27T08:37:00.633Z,17.60
2017-09-27T08:38:00.621Z,17.59
2017-09-27T08:39:00.627Z,17.71
2017-09-27T08:40:00.637Z,17.85
2017-09-27T08:41:00.630Z,17.92
2017-09-27T08:42:00.634Z,17.94
2017-09-27T08:43:00.634Z,18.07
2017-09-27T08:44:00.658Z,17.94
2017-09-27T08:45:00.639Z,17.95
2017-09-27T08:46:00.645Z,17.89
2017-09-27T08:47:00.645Z,18.11
2017-09-27T08:48:00.657Z,18.10
2017-09-27T08:49:00.652Z,18.01
2017-09-27T08:50:00.655Z,18.15
2017-09-27T08:51:00.657Z,18.07
2017-09-27T08:52:00.661Z,18.08
2017-09-27T08:53:00.665Z,18.00
2017-09-27T08:54:00.663Z,18.01
2017-09-27T08:55:00.672Z,18.11
2017-09-27T08:56:00.670Z,18.13
2017-09-27T08:57:00.678Z,18.01
2017-09-27T08:58:00.678Z,18.01
2017-09-27T08:59:00.678Z,18.00
2017-09-27T09:00:00.692Z,18.11
2017-09-27T09:01:00.686Z,18.13
2017-09-27T09:02:00.692Z,18.13
2017-09-27T09:03:00.695Z,18.11
2017-09-27T09:04:00.697Z,18.08
2017-09-27T09:05:00.700Z,18.13
2017-09-27T09:06:00.701Z,18.08
2017-09-27T09:07:00.709Z,18.13
2017-09-27T09:08:00.709Z,18.13
2017-09-27T09:09:00.708Z,18.10
2017-09-27T09:10:00.716Z,18.11
2017-09-27T09:11:00.718Z,18.08
2017-09-27T09:12:00.723Z,18.16
2017-09-27T09:13:00.730Z,18.15
2017-09-27T09:14:00.727Z,18.31
2017-09-27T09:15:00.730Z,18.31
2017-09-27T09:16:00.737Z,18.43
2017-09-27T09:17:00.740Z,18.52
2017-09-27T09:18:00.740Z,18.60
2017-09-27T09:19:00.741Z,18.68
2017-09-27T09:20:00.747Z,18.62
2017-09-27T09:21:00.750Z,18.73
2017-09-27T09:22:00.752Z,18.75
2017-09-27T09:23:00.757Z,18.83
2017-09-27T09:24:00.770Z,18.80
2017-09-27T09:25:00.760Z,18.83
2017-09-27T09:26:00.764Z,18.89
2017-09-27T09:27:00.768Z,18.96
2017-09-27T09:28:00.771Z,18.95
2017-09-27T09:29:00.778Z,18.95
2017-09-27T09:30:00.776Z,18.95
2017-09-27T09:31:00.784Z,18.95
2017-09-27T09:32:00.786Z,18.98
2017-09-27T09:33:00.789Z,18.96
2017-09-27T09:34:00.798Z,18.89
2017-09-27T09:35:00.802Z,18.93
2017-09-27T09:36:00.800Z,18.99
2017-09-27T09:37:00.806Z,18.88
2017-09-27T09:38:00.812Z,18.86
2017-09-27T09:39:00.814Z,18.95
2017-09-27T09:40:00.817Z,18.89
2017-09-27T09:41:00.825Z,18.98
2017-09-27T09:42:00.828Z,19.04
2017-09-27T09:43:00.831Z,19.11
2017-09-27T09:44:00.838Z,19.11
2017-09-27T09:45:00.845Z,19.16
2017-09-27T09:46:00.842Z,19.16
2017-09-27T09:47:00.855Z,19.22
2017-09-27T09:48:00.860Z,19.21
2017-09-27T09:49:00.858Z,19.34
2017-09-27T09:50:00.874Z,19.31
2017-09-27T09:51:00.864Z,19.34
2017-09-27T09:52:00.880Z,19.47
2017-09-27T09:53:00.872Z,19.49
2017-09-27T09:54:00.875Z,19.56
2017-09-27T09:55:00.882Z,19.56
2017-09-27T09:56:00.886Z,19.63
2017-09-27T09:57:00.891Z,19.71
2017-09-27T09:58:00.893Z,19.64
2017-09-27T09:59:00.897Z,19.71
2017-09-27T10:00:00.901Z,19.70
2017-09-27T10:01:00.915Z,19.85
2017-09-27T10:02:00.913Z,19.77
2017-09-27T10:03:00.912Z,19.79
2017-09-27T10:04:00.917Z,19.91
2017-09-27T10:05:00.924Z,19.96
2017-09-27T10:06:00.928Z,19.99
2017-09-27T10:07:00.935Z,19.99
2017-09-27T10:08:00.939Z,19.99
2017-09-27T10:09:00.941Z,20.09
2017-09-27T10:10:01.029Z,20.13
2017-09-27T10:11:00.955Z,20.21
2017-09-27T10:12:00.958Z,20.26
2017-09-27T10:13:00.984Z,20.29
2017-09-27T10:14:00.973Z,20.36
2017-09-27T10:15:00.970Z,20.22
2017-09-27T10:16:00.989Z,20.21
2017-09-27T10:17:00.980Z,20.21
2017-09-27T10:18:00.987Z,20.29
2017-09-27T10:19:00.991Z,20.25
2017-09-27T10:20:00.996Z,20.26
2017-09-27T10:21:00.998Z,20.28
2017-09-27T10:22:00.998Z,20.16
2017-09-27T10:23:01.017Z,20.22
2017-09-27T10:24:01.017Z,20.25
2017-09-27T10:25:01.019Z,20.31
2017-09-27T10:26:01.024Z,20.39
2017-09-27T10:27:01.030Z,20.44
2017-09-27T10:28:01.035Z,20.62
2017-09-27T10:29:01.088Z,20.59
2017-09-27T10:30:01.050Z,20.63
2017-09-27T10:31:01.058Z,20.74
2017-09-27T10:32:01.057Z,20.80
2017-09-27T10:33:01.061Z,20.72
2017-09-27T10:34:01.098Z,20.70
2017-09-27T10:35:01.072Z,20.70
2017-09-27T10:36:01.080Z,20.77
2017-09-27T10:37:01.083Z,20.75
2017-09-27T10:38:01.089Z,20.75
2017-09-27T10:39:01.095Z,20.74
2017-09-27T10:40:01.104Z,20.75
2017-09-27T10:41:01.104Z,20.66
2017-09-27T10:42:01.109Z,20.62
2017-09-27T10:43:01.120Z,20.59
2017-09-27T10:44:01.144Z,20.52
2017-09-27T10:45:01.126Z,20.50
2017-09-27T10:46:01.132Z,20.55
2017-09-27T10:47:01.137Z,20.52
2017-09-27T10:48:01.141Z,20.58
2017-09-27T10:49:01.145Z,20.65
2017-09-27T10:50:01.159Z,20.62
2017-09-27T10:51:01.157Z,20.59
2017-09-27T10:52:01.182Z,20.60
2017-09-27T10:53:01.170Z,20.65
2017-09-27T10:54:01.182Z,20.63
2017-09-27T10:55:01.179Z,20.60
2017-09-27T10:56:01.186Z,20.59
2017-09-27T10:57:01.191Z,20.74
2017-09-27T10:58:01.196Z,20.74
2017-09-27T10:59:01.203Z,20.78
2017-09-27T11:00:01.208Z,20.81
2017-09-27T11:01:01.211Z,20.78
2017-09-27T11:02:01.229Z,20.85
2017-09-27T11:03:01.226Z,20.92
2017-09-27T11:04:01.229Z,20.90
2017-09-27T11:05:01.233Z,20.90
2017-09-27T11:06:01.263Z,21.03
2017-09-27T11:07:01.259Z,21.05
2017-09-27T11:08:01.259Z,20.97
2017-09-27T11:09:01.257Z,21.11
2017-09-27T11:10:01.259Z,21.14
2017-09-27T11:11:01.269Z,21.12
2017-09-27T11:12:01.274Z,21.15
2017-09-27T11:13:01.278Z,21.15
2017-09-27T11:14:01.284Z,21.21
2017-09-27T11:15:01.312Z,21.32
2017-09-27T11:16:01.298Z,21.17
2017-09-27T11:17:01.306Z,21.05
2017-09-27T11:18:01.310Z,20.97
2017-09-27T11:19:01.318Z,21.06
2017-09-27T11:20:01.323Z,21.11
2017-09-27T11:21:01.328Z,21.17
2017-09-27T11:22:01.338Z,21.30
2017-09-27T11:23:01.334Z,21.42
2017-09-27T11:24:01.343Z,21.42
2017-09-27T11:25:01.349Z,21.55
2017-09-27T11:26:01.354Z,21.58
2017-09-27T11:27:01.361Z,21.54
2017-09-27T11:28:01.368Z,21.51
2017-09-27T11:29:01.372Z,21.55
2017-09-27T11:30:01.381Z,21.57
2017-09-27T11:31:01.387Z,21.62
2017-09-27T11:32:01.390Z,21.61
2017-09-27T11:33:01.395Z,21.48
2017-09-27T11:34:01.401Z,21.58
2017-09-27T11:35:01.408Z,21.48
2017-09-27T11:36:01.412Z,21.50
2017-09-27T11:37:01.416Z,21.52
2017-09-27T11:38:01.437Z,21.48
2017-09-27T11:39:01.434Z,21.43
2017-09-27T11:40:01.438Z,21.60
2017-09-27T11:41:01.448Z,21.45
2017-09-27T11:42:01.449Z,21.46
2017-09-27T11:43:01.455Z,21.45
2017-09-27T11:44:01.469Z,21.51
2017-09-27T11:45:01.466Z,21.50
2017-09-27T11:46:01.470Z,21.52
2017-09-27T11:47:01.479Z,21.39
2017-09-27T11:48:01.486Z,21.30
2017-09-27T11:49:01.497Z,21.21
2017-09-27T11:50:01.493Z,21.15
2017-09-27T11:51:01.503Z,21.18
2017-09-27T11:52:01.509Z,21.17
2017-09-27T11:53:01.513Z,21.21
2017-09-27T11:54:01.523Z,21.24
2017-09-27T11:55:01.526Z,21.24
2017-09-27T11:56:01.532Z,21.33
2017-09-27T11:57:01.599Z,21.24
2017-09-27T11:58:01.542Z,21.27
2017-09-27T11:59:01.553Z,21.35
2017-09-27T12:00:01.556Z,21.39
2017-09-27T12:01:01.569Z,21.48
2017-09-27T12:02:01.574Z,21.54
2017-09-27T12:03:01.568Z,21.51
2017-09-27T12:04:01.576Z,21.42
2017-09-27T12:05:01.584Z,21.39
2017-09-27T12:06:01.596Z,21.27
2017-09-27T12:07:01.622Z,21.30
2017-09-27T12:08:01.602Z,21.39
2017-09-27T12:09:01.606Z,21.48
2017-09-27T12:10:01.618Z,21.48
2017-09-27T12:11:01.616Z,21.46
2017-09-27T12:12:01.628Z,21.51
2017-09-27T12:13:01.627Z,21.60
2017-09-27T12:14:01.633Z,21.62
2017-09-27T12:15:01.640Z,21.70
2017-09-27T12:16:01.646Z,21.69
2017-09-27T12:17:01.654Z,21.70
2017-09-27T12:18:01.659Z,21.77
2017-09-27T12:19:01.662Z,21.82
2017-09-27T12:20:01.669Z,21.98
2017-09-27T12:21:01.674Z,22.00
2017-09-27T12:22:01.678Z,22.00
2017-09-27T12:23:01.685Z,22.07
2017-09-27T12:24:01.690Z,22.07
2017-09-27T12:25:01.700Z,22.23
2017-09-27T12:26:01.706Z,22.17
2017-09-27T12:27:01.715Z,22.08
2017-09-27T12:28:01.718Z,22.08
2017-09-27T12:29:01.722Z,22.06
2017-09-27T12:30:01.727Z,22.00
2017-09-27T12:31:01.750Z,21.88
2017-09-27T12:32:01.737Z,21.98
2017-09-27T12:33:01.744Z,21.92
2017-09-27T12:34:01.752Z,21.98
2017-09-27T12:35:01.758Z,21.98
2017-09-27T12:36:01.782Z,22.02
2017-09-27T12:37:01.768Z,21.91
2017-09-27T12:38:01.778Z,21.96
2017-09-27T12:39:01.782Z,21.92
2017-09-27T12:40:01.789Z,21.82
2017-09-27T12:41:01.795Z,21.89
2017-09-27T12:42:01.809Z,21.85
2017-09-27T12:43:01.808Z,21.88
2017-09-27T12:44:01.815Z,21.73
2017-09-27T12:45:01.822Z,21.76
2017-09-27T12:46:01.829Z,21.69
2017-09-27T12:47:01.835Z,21.67
2017-09-27T12:48:01.844Z,21.69
2017-09-27T12:49:01.856Z,21.64
2017-09-27T12:50:01.847Z,21.55
2017-09-27T12:51:01.855Z,21.46
2017-09-27T12:52:01.865Z,21.39